Carberry, Canada
Current Conditions -  °F | °C
As of 10:00 AM on Tuesday 21 Oct 2014 (Local Time) from CYBR Reporting Station
Clear Clear  
Wind Chill: 52°   Ceiling: Unl
Heat Index: 52°   Visibility: 15mi
Dew Point: 41°   Wind: 12mph
Humidity: 67%   Direction: 140°SE
Pressure: 29.87"   Gusts: NA
Location:  49.87°N, 99.35°W
Report Text: CYBR 211500Z 14010KT 15SM SKC 11/05 A2987 RMK SLP128
Loading
Personal Weather Stations






























Interactive Weather Map
Tropical Storm Tracking
New forecast layout! Learn more

10-Day Weather Forecast

Advertisements
Track Severe Weather on mobile